sensor_id;sensor_type;location;lat;lon;timestamp;pressure;altitude;pressure_sealevel;temperature;humidity
74627;BME280;63132;52.268;5.192;2022-09-09T00:00:20;100605.88;;;14.37;87.43
74627;BME280;63132;52.268;5.192;2022-09-09T00:02:56;100603.88;;;14.21;87.80
74627;BME280;63132;52.268;5.192;2022-09-09T00:05:29;100602.66;;;14.22;87.69
74627;BME280;63132;52.268;5.192;2022-09-09T00:07:59;100604.16;;;14.10;88.84
74627;BME280;63132;52.268;5.192;2022-09-09T00:10:39;100601.09;;;14.37;87.27
74627;BME280;63132;52.268;5.192;2022-09-09T00:13:19;100591.34;;;14.29;87.27
74627;BME280;63132;52.268;5.192;2022-09-09T00:16:00;100593.28;;;14.16;88.32
74627;BME280;63132;52.268;5.192;2022-09-09T00:21:16;100599.03;;;14.25;88.46
74627;BME280;63132;52.268;5.192;2022-09-09T00:23:54;100592.94;;;14.30;88.67
74627;BME280;63132;52.268;5.192;2022-09-09T00:26:42;100588.50;;;14.17;88.95
74627;BME280;63132;52.268;5.192;2022-09-09T00:31:39;100596.56;;;14.11;88.74
74627;BME280;63132;52.268;5.192;2022-09-09T00:34:16;100589.78;;;13.96;89.83
74627;BME280;63132;52.268;5.192;2022-09-09T00:36:43;100584.88;;;14.00;89.64
74627;BME280;63132;52.268;5.192;2022-09-09T00:39:39;100584.97;;;13.96;89.65
74627;BME280;63132;52.268;5.192;2022-09-09T00:42:29;100590.13;;;13.98;89.79
74627;BME280;63132;52.268;5.192;2022-09-09T00:45:02;100585.44;;;14.27;88.78
74627;BME280;63132;52.268;5.192;2022-09-09T00:47:46;100590.31;;;14.39;87.74
74627;BME280;63132;52.268;5.192;2022-09-09T00:50:38;100588.91;;;14.15;88.00
74627;BME280;63132;52.268;5.192;2022-09-09T00:53:51;100598.13;;;13.96;89.80
74627;BME280;63132;52.268;5.192;2022-09-09T00:56:28;100592.03;;;14.01;89.43
74627;BME280;63132;52.268;5.192;2022-09-09T01:01:43;100596.31;;;13.69;90.27
74627;BME280;63132;52.268;5.192;2022-09-09T01:04:14;100597.22;;;13.82;90.10
74627;BME280;63132;52.268;5.192;2022-09-09T01:06:43;100593.47;;;13.73;90.96
74627;BME280;63132;52.268;5.192;2022-09-09T01:09:33;100590.09;;;13.81;90.78
74627;BME280;63132;52.268;5.192;2022-09-09T01:14:58;100589.63;;;13.47;91.83
74627;BME280;63132;52.268;5.192;2022-09-09T01:17:36;100597.09;;;13.70;90.88
74627;BME280;63132;52.268;5.192;2022-09-09T01:28:25;100590.63;;;13.17;92.52
74627;BME280;63132;52.268;5.192;2022-09-09T01:30:52;100584.63;;;13.18;92.47
74627;BME280;63132;52.268;5.192;2022-09-09T01:33:18;100586.09;;;13.26;92.71
74627;BME280;63132;52.268;5.192;2022-09-09T01:36:09;100587.47;;;13.15;92.30
74627;BME280;63132;52.268;5.192;2022-09-09T01:38:36;100589.53;;;13.11;92.73
74627;BME280;63132;52.268;5.192;2022-09-09T01:41:02;100588.75;;;13.10;93.22
74627;BME280;63132;52.268;5.192;2022-09-09T01:43:28;100581.56;;;12.93;92.78
74627;BME280;63132;52.268;5.192;2022-09-09T01:45:55;100575.13;;;12.96;93.39
74627;BME280;63132;52.268;5.192;2022-09-09T01:48:22;100577.56;;;12.94;93.24
74627;BME280;63132;52.268;5.192;2022-09-09T01:50:49;100574.78;;;12.94;93.00
74627;BME280;63132;52.268;5.192;2022-09-09T01:53:17;100568.22;;;12.84;93.57
74627;BME280;63132;52.268;5.192;2022-09-09T01:55:55;100576.13;;;12.86;92.87
74627;BME280;63132;52.268;5.192;2022-09-09T02:04:13;100577.28;;;12.65;93.19
74627;BME280;63132;52.268;5.192;2022-09-09T02:06:45;100571.25;;;12.70;93.61
74627;BME280;63132;52.268;5.192;2022-09-09T02:09:12;100574.34;;;12.75;93.86
74627;BME280;63132;52.268;5.192;2022-09-09T02:11:42;100567.38;;;12.64;93.78
74627;BME280;63132;52.268;5.192;2022-09-09T02:14:21;100565.78;;;12.66;93.38
74627;BME280;63132;52.268;5.192;2022-09-09T02:16:52;100567.38;;;12.64;93.68
74627;BME280;63132;52.268;5.192;2022-09-09T02:19:22;100567.69;;;12.69;93.63
74627;BME280;63132;52.268;5.192;2022-09-09T02:21:52;100560.69;;;12.61;93.63
74627;BME280;63132;52.268;5.192;2022-09-09T02:24:20;100564.44;;;12.74;93.45
74627;BME280;63132;52.268;5.192;2022-09-09T02:26:49;100562.44;;;12.75;93.81
74627;BME280;63132;52.268;5.192;2022-09-09T02:29:25;100560.13;;;12.70;93.95
74627;BME280;63132;52.268;5.192;2022-09-09T02:31:52;100555.97;;;12.58;93.72
74627;BME280;63132;52.268;5.192;2022-09-09T02:34:21;100562.69;;;12.61;93.55
74627;BME280;63132;52.268;5.192;2022-09-09T02:36:51;100563.78;;;12.67;94.14
74627;BME280;63132;52.268;5.192;2022-09-09T02:39:19;100560.56;;;12.68;93.15
74627;BME280;63132;52.268;5.192;2022-09-09T02:41:44;100551.19;;;12.59;93.96
74627;BME280;63132;52.268;5.192;2022-09-09T02:44:11;100562.56;;;12.68;93.88
74627;BME280;63132;52.268;5.192;2022-09-09T02:46:53;100558.28;;;12.63;93.70
74627;BME280;63132;52.268;5.192;2022-09-09T02:52:14;100559.13;;;12.60;93.74
74627;BME280;63132;52.268;5.192;2022-09-09T02:54:42;100550.28;;;12.65;92.87
74627;BME280;63132;52.268;5.192;2022-09-09T02:57:19;100553.50;;;12.64;94.13
74627;BME280;63132;52.268;5.192;2022-09-09T02:59:47;100557.69;;;12.52;93.86
74627;BME280;63132;52.268;5.192;2022-09-09T03:02:13;100560.53;;;12.48;93.71
74627;BME280;63132;52.268;5.192;2022-09-09T03:04:39;100560.41;;;12.56;93.75
74627;BME280;63132;52.268;5.192;2022-09-09T03:07:04;100554.06;;;12.55;93.98
74627;BME280;63132;52.268;5.192;2022-09-09T03:09:30;100549.84;;;12.47;94.27
74627;BME280;63132;52.268;5.192;2022-09-09T03:11:57;100557.94;;;12.38;94.04
74627;BME280;63132;52.268;5.192;2022-09-09T03:14:22;100546.84;;;12.38;94.59
74627;BME280;63132;52.268;5.192;2022-09-09T03:16:51;100538.84;;;12.40;93.80
74627;BME280;63132;52.268;5.192;2022-09-09T03:19:16;100542.75;;;12.42;94.50
74627;BME280;63132;52.268;5.192;2022-09-09T03:21:44;100539.16;;;12.45;94.48
74627;BME280;63132;52.268;5.192;2022-09-09T03:24:09;100540.66;;;12.50;94.18
74627;BME280;63132;52.268;5.192;2022-09-09T03:26:35;100538.25;;;12.52;93.84
74627;BME280;63132;52.268;5.192;2022-09-09T03:29:00;100543.19;;;12.41;93.52
74627;BME280;63132;52.268;5.192;2022-09-09T03:31:26;100534.44;;;12.42;93.83
74627;BME280;63132;52.268;5.192;2022-09-09T03:33:55;100536.44;;;12.42;94.21
74627;BME280;63132;52.268;5.192;2022-09-09T03:36:21;100535.94;;;12.47;94.25
74627;BME280;63132;52.268;5.192;2022-09-09T03:38:46;100544.03;;;12.61;93.30
74627;BME280;63132;52.268;5.192;2022-09-09T03:41:12;100541.97;;;12.42;93.88
74627;BME280;63132;52.268;5.192;2022-09-09T03:43:38;100545.38;;;12.53;93.93
74627;BME280;63132;52.268;5.192;2022-09-09T03:46:03;100540.47;;;12.61;92.93
74627;BME280;63132;52.268;5.192;2022-09-09T03:48:29;100552.38;;;12.38;93.47
74627;BME280;63132;52.268;5.192;2022-09-09T03:50:55;100536.56;;;12.35;94.08
74627;BME280;63132;52.268;5.192;2022-09-09T03:53:25;100535.53;;;12.48;93.78
74627;BME280;63132;52.268;5.192;2022-09-09T03:55:52;100534.56;;;12.35;93.47
74627;BME280;63132;52.268;5.192;2022-09-09T03:58:20;100540.44;;;12.17;94.59
74627;BME280;63132;52.268;5.192;2022-09-09T04:00:57;100535.22;;;12.19;94.12
74627;BME280;63132;52.268;5.192;2022-09-09T04:03:24;100539.22;;;12.18;94.83
74627;BME280;63132;52.268;5.192;2022-09-09T04:05:53;100542.66;;;12.26;94.55
74627;BME280;63132;52.268;5.192;2022-09-09T04:08:19;100539.75;;;12.33;93.81
74627;BME280;63132;52.268;5.192;2022-09-09T04:10:49;100543.44;;;12.27;93.60
74627;BME280;63132;52.268;5.192;2022-09-09T04:13:15;100536.09;;;12.16;94.35
74627;BME280;63132;52.268;5.192;2022-09-09T04:15:42;100539.28;;;12.15;94.34
74627;BME280;63132;52.268;5.192;2022-09-09T04:18:09;100532.22;;;12.10;94.47
74627;BME280;63132;52.268;5.192;2022-09-09T04:20:34;100530.66;;;12.09;94.49
74627;BME280;63132;52.268;5.192;2022-09-09T04:23:00;100525.41;;;12.15;94.58
74627;BME280;63132;52.268;5.192;2022-09-09T04:25:26;100516.47;;;12.27;93.65
74627;BME280;63132;52.268;5.192;2022-09-09T04:27:55;100526.66;;;12.10;94.42
74627;BME280;63132;52.268;5.192;2022-09-09T04:30:21;100526.59;;;12.14;94.43
74627;BME280;63132;52.268;5.192;2022-09-09T04:32:47;100515.19;;;12.08;94.54
74627;BME280;63132;52.268;5.192;2022-09-09T04:35:12;100524.00;;;12.03;95.01
74627;BME280;63132;52.268;5.192;2022-09-09T04:37:38;100515.19;;;12.08;94.94
74627;BME280;63132;52.268;5.192;2022-09-09T04:40:04;100514.00;;;12.09;94.02
74627;BME280;63132;52.268;5.192;2022-09-09T04:42:30;100511.56;;;12.11;94.43
74627;BME280;63132;52.268;5.192;2022-09-09T04:44:59;100515.47;;;12.14;94.12
74627;BME280;63132;52.268;5.192;2022-09-09T04:47:24;100507.53;;;12.16;94.59
74627;BME280;63132;52.268;5.192;2022-09-09T04:49:50;100514.78;;;12.10;94.56
74627;BME280;63132;52.268;5.192;2022-09-09T04:52:17;100508.59;;;11.99;94.59
74627;BME280;63132;52.268;5.192;2022-09-09T04:54:42;100502.03;;;12.12;94.46
74627;BME280;63132;52.268;5.192;2022-09-09T04:57:10;100501.56;;;12.17;93.76
74627;BME280;63132;52.268;5.192;2022-09-09T04:59:35;100501.69;;;12.10;94.04
74627;BME280;63132;52.268;5.192;2022-09-09T05:02:01;100502.66;;;12.00;94.64
74627;BME280;63132;52.268;5.192;2022-09-09T05:04:27;100507.00;;;12.01;94.25
74627;BME280;63132;52.268;5.192;2022-09-09T05:06:53;100513.25;;;12.05;94.04
74627;BME280;63132;52.268;5.192;2022-09-09T05:09:19;100504.53;;;12.07;93.98
74627;BME280;63132;52.268;5.192;2022-09-09T05:11:44;100497.34;;;12.09;94.24
74627;BME280;63132;52.268;5.192;2022-09-09T05:14:10;100496.31;;;12.23;93.33
74627;BME280;63132;52.268;5.192;2022-09-09T05:16:37;100510.75;;;12.14;93.92
74627;BME280;63132;52.268;5.192;2022-09-09T05:19:02;100509.22;;;12.10;94.22
74627;BME280;63132;52.268;5.192;2022-09-09T05:21:28;100509.16;;;12.13;94.20
74627;BME280;63132;52.268;5.192;2022-09-09T05:23:56;100500.22;;;12.26;94.18
74627;BME280;63132;52.268;5.192;2022-09-09T05:26:21;100490.03;;;12.19;93.74
74627;BME280;63132;52.268;5.192;2022-09-09T05:28:48;100498.03;;;12.13;93.97
74627;BME280;63132;52.268;5.192;2022-09-09T05:31:15;100500.41;;;12.15;94.76
74627;BME280;63132;52.268;5.192;2022-09-09T05:33:42;100504.91;;;12.29;93.66
74627;BME280;63132;52.268;5.192;2022-09-09T05:36:16;100506.75;;;12.15;94.81
74627;BME280;63132;52.268;5.192;2022-09-09T05:38:43;100510.59;;;12.22;94.99
74627;BME280;63132;52.268;5.192;2022-09-09T05:41:09;100512.22;;;12.19;94.50
74627;BME280;63132;52.268;5.192;2022-09-09T05:43:41;100508.38;;;12.13;94.36
74627;BME280;63132;52.268;5.192;2022-09-09T05:46:29;100504.00;;;12.35;94.36
74627;BME280;63132;52.268;5.192;2022-09-09T05:48:55;100496.97;;;12.31;94.28
74627;BME280;63132;52.268;5.192;2022-09-09T05:51:22;100490.78;;;12.43;94.10
74627;BME280;63132;52.268;5.192;2022-09-09T05:53:49;100491.03;;;12.52;93.72
74627;BME280;63132;52.268;5.192;2022-09-09T05:56:20;100502.94;;;12.53;93.33
74627;BME280;63132;52.268;5.192;2022-09-09T05:58:47;100507.19;;;12.57;93.16
74627;BME280;63132;52.268;5.192;2022-09-09T06:01:21;100505.41;;;12.47;93.76
74627;BME280;63132;52.268;5.192;2022-09-09T06:03:48;100506.63;;;12.46;94.46
74627;BME280;63132;52.268;5.192;2022-09-09T06:06:16;100505.28;;;12.54;94.38
74627;BME280;63132;52.268;5.192;2022-09-09T06:08:44;100503.44;;;12.87;93.83
74627;BME280;63132;52.268;5.192;2022-09-09T06:11:12;100508.28;;;13.03;93.67
74627;BME280;63132;52.268;5.192;2022-09-09T06:13:38;100510.75;;;13.17;92.67
74627;BME280;63132;52.268;5.192;2022-09-09T06:16:17;100514.34;;;13.38;91.17
74627;BME280;63132;52.268;5.192;2022-09-09T06:18:43;100510.06;;;13.13;92.07
74627;BME280;63132;52.268;5.192;2022-09-09T06:21:15;100500.69;;;13.27;91.87
74627;BME280;63132;52.268;5.192;2022-09-09T06:23:40;100500.09;;;13.36;91.30
74627;BME280;63132;52.268;5.192;2022-09-09T06:28:38;100504.75;;;13.22;91.87
74627;BME280;63132;52.268;5.192;2022-09-09T06:31:06;100512.31;;;13.22;92.83
74627;BME280;63132;52.268;5.192;2022-09-09T06:33:39;100499.94;;;13.43;91.59
74627;BME280;63132;52.268;5.192;2022-09-09T06:36:07;100489.44;;;13.50;91.38
74627;BME280;63132;52.268;5.192;2022-09-09T06:38:35;100492.41;;;13.76;90.59
74627;BME280;63132;52.268;5.192;2022-09-09T06:41:01;100497.22;;;14.08;89.65
74627;BME280;63132;52.268;5.192;2022-09-09T06:43:27;100500.69;;;13.96;90.23
74627;BME280;63132;52.268;5.192;2022-09-09T06:45:58;100496.69;;;13.97;89.88
74627;BME280;63132;52.268;5.192;2022-09-09T06:48:24;100497.56;;;14.10;89.08
74627;BME280;63132;52.268;5.192;2022-09-09T06:53:42;100503.91;;;14.10;90.38
74627;BME280;63132;52.268;5.192;2022-09-09T06:58:35;100504.13;;;14.49;87.70
74627;BME280;63132;52.268;5.192;2022-09-09T07:01:04;100498.91;;;14.34;88.51
74627;BME280;63132;52.268;5.192;2022-09-09T07:03:30;100501.81;;;14.31;88.78
74627;BME280;63132;52.268;5.192;2022-09-09T07:05:56;100502.63;;;14.44;87.88
74627;BME280;63132;52.268;5.192;2022-09-09T07:08:22;100505.50;;;14.57;87.32
74627;BME280;63132;52.268;5.192;2022-09-09T07:10:47;100499.25;;;14.82;86.76
74627;BME280;63132;52.268;5.192;2022-09-09T07:13:13;100500.84;;;14.83;86.68
74627;BME280;63132;52.268;5.192;2022-09-09T07:15:41;100505.16;;;15.13;85.65
74627;BME280;63132;52.268;5.192;2022-09-09T07:18:07;100502.16;;;15.20;85.47
74627;BME280;63132;52.268;5.192;2022-09-09T07:20:32;100499.28;;;15.36;84.61
74627;BME280;63132;52.268;5.192;2022-09-09T07:22:57;100495.75;;;15.74;83.46
74627;BME280;63132;52.268;5.192;2022-09-09T07:25:24;100493.03;;;16.43;80.89
74627;BME280;63132;52.268;5.192;2022-09-09T07:27:53;100487.78;;;16.67;79.70
74627;BME280;63132;52.268;5.192;2022-09-09T07:30:18;100488.50;;;16.93;78.20
74627;BME280;63132;52.268;5.192;2022-09-09T07:32:44;100491.03;;;16.78;78.78
74627;BME280;63132;52.268;5.192;2022-09-09T07:35:10;100490.31;;;16.87;78.56
74627;BME280;63132;52.268;5.192;2022-09-09T07:37:37;100488.81;;;16.95;77.16
74627;BME280;63132;52.268;5.192;2022-09-09T07:40:03;100490.06;;;16.94;78.00
74627;BME280;63132;52.268;5.192;2022-09-09T07:42:28;100495.75;;;17.12;77.34
74627;BME280;63132;52.268;5.192;2022-09-09T07:44:54;100496.75;;;17.28;76.36
74627;BME280;63132;52.268;5.192;2022-09-09T07:47:20;100502.69;;;16.99;76.95
74627;BME280;63132;52.268;5.192;2022-09-09T07:49:46;100503.03;;;17.32;76.50
74627;BME280;63132;52.268;5.192;2022-09-09T07:52:12;100496.75;;;17.28;76.27
74627;BME280;63132;52.268;5.192;2022-09-09T07:54:37;100498.28;;;16.98;76.65
74627;BME280;63132;52.268;5.192;2022-09-09T07:57:03;100494.41;;;16.95;76.80
74627;BME280;63132;52.268;5.192;2022-09-09T07:59:29;100495.38;;;17.01;76.85
74627;BME280;63132;52.268;5.192;2022-09-09T08:01:55;100495.59;;;17.38;75.32
74627;BME280;63132;52.268;5.192;2022-09-09T08:04:22;100494.66;;;17.41;75.37
74627;BME280;63132;52.268;5.192;2022-09-09T08:06:58;100500.22;;;17.63;75.21
74627;BME280;63132;52.268;5.192;2022-09-09T08:09:26;100502.97;;;17.23;76.57
74627;BME280;63132;52.268;5.192;2022-09-09T08:11:54;100510.00;;;17.58;73.35
74627;BME280;63132;52.268;5.192;2022-09-09T08:14:20;100502.19;;;17.22;75.53
74627;BME280;63132;52.268;5.192;2022-09-09T08:16:47;100503.97;;;17.07;75.84
74627;BME280;63132;52.268;5.192;2022-09-09T08:19:13;100509.94;;;16.96;76.43
74627;BME280;63132;52.268;5.192;2022-09-09T08:21:44;100508.47;;;16.48;77.78
74627;BME280;63132;52.268;5.192;2022-09-09T08:24:11;100509.31;;;16.92;76.73
74627;BME280;63132;52.268;5.192;2022-09-09T08:26:42;100512.94;;;16.80;76.75
74627;BME280;63132;52.268;5.192;2022-09-09T08:29:09;100512.09;;;16.57;77.90
74627;BME280;63132;52.268;5.192;2022-09-09T08:31:59;100504.94;;;16.69;78.00
74627;BME280;63132;52.268;5.192;2022-09-09T08:34:25;100511.75;;;17.12;76.33
74627;BME280;63132;52.268;5.192;2022-09-09T08:36:52;100511.28;;;17.35;75.36
74627;BME280;63132;52.268;5.192;2022-09-09T08:39:19;100506.81;;;17.47;74.72
74627;BME280;63132;52.268;5.192;2022-09-09T08:47:22;100516.28;;;18.12;71.45
74627;BME280;63132;52.268;5.192;2022-09-09T08:52:39;100522.88;;;17.56;72.20
74627;BME280;63132;52.268;5.192;2022-09-09T08:55:27;100517.94;;;18.00;71.37
74627;BME280;63132;52.268;5.192;2022-09-09T08:57:57;100534.44;;;17.98;71.51
74627;BME280;63132;52.268;5.192;2022-09-09T09:00:30;100524.13;;;17.86;71.89
74627;BME280;63132;52.268;5.192;2022-09-09T09:03:24;100532.41;;;17.89;71.06
74627;BME280;63132;52.268;5.192;2022-09-09T09:09:03;100530.38;;;17.90;71.31
74627;BME280;63132;52.268;5.192;2022-09-09T09:11:36;100533.16;;;17.28;73.46
74627;BME280;63132;52.268;5.192;2022-09-09T09:14:17;100528.78;;;17.27;74.64
74627;BME280;63132;52.268;5.192;2022-09-09T09:17:03;100522.34;;;17.39;73.35
74627;BME280;63132;52.268;5.192;2022-09-09T09:19:31;100527.13;;;18.01;71.90
74627;BME280;63132;52.268;5.192;2022-09-09T09:22:04;100532.88;;;17.88;72.67
74627;BME280;63132;52.268;5.192;2022-09-09T09:24:45;100536.53;;;17.44;72.64
74627;BME280;63132;52.268;5.192;2022-09-09T09:29:48;100538.56;;;17.44;73.40
74627;BME280;63132;52.268;5.192;2022-09-09T09:32:18;100544.69;;;17.30;74.24
74627;BME280;63132;52.268;5.192;2022-09-09T09:34:51;100535.06;;;17.31;74.16
74627;BME280;63132;52.268;5.192;2022-09-09T09:37:28;100539.19;;;17.48;74.44
74627;BME280;63132;52.268;5.192;2022-09-09T09:39:54;100539.88;;;17.08;75.07
74627;BME280;63132;52.268;5.192;2022-09-09T09:42:20;100537.41;;;17.10;74.88
74627;BME280;63132;52.268;5.192;2022-09-09T09:44:46;100538.31;;;17.07;74.71
74627;BME280;63132;52.268;5.192;2022-09-09T09:47:14;100544.97;;;17.01;75.36
74627;BME280;63132;52.268;5.192;2022-09-09T09:49:51;100535.91;;;17.19;74.60
74627;BME280;63132;52.268;5.192;2022-09-09T09:52:22;100539.59;;;17.37;75.23
74627;BME280;63132;52.268;5.192;2022-09-09T09:54:49;100532.47;;;17.14;77.20
74627;BME280;63132;52.268;5.192;2022-09-09T09:57:16;100538.38;;;16.60;78.08
74627;BME280;63132;52.268;5.192;2022-09-09T09:59:43;100538.88;;;16.80;78.01
74627;BME280;63132;52.268;5.192;2022-09-09T10:02:39;100540.38;;;16.72;77.18
74627;BME280;63132;52.268;5.192;2022-09-09T10:05:23;100542.78;;;16.48;79.35
74627;BME280;63132;52.268;5.192;2022-09-09T10:08:23;100538.22;;;16.98;78.37
74627;BME280;63132;52.268;5.192;2022-09-09T10:17:31;100536.41;;;16.82;78.29
74627;BME280;63132;52.268;5.192;2022-09-09T10:23:06;100533.50;;;17.30;76.16
74627;BME280;63132;52.268;5.192;2022-09-09T10:36:49;100537.53;;;18.49;72.48
74627;BME280;63132;52.268;5.192;2022-09-09T10:39:22;100546.81;;;17.79;76.77
74627;BME280;63132;52.268;5.192;2022-09-09T10:42:05;100545.19;;;17.37;80.13
74627;BME280;63132;52.268;5.192;2022-09-09T10:55:20;100521.31;;;18.44;79.14
74627;BME280;63132;52.268;5.192;2022-09-09T10:57:51;100522.03;;;18.17;77.91
74627;BME280;63132;52.268;5.192;2022-09-09T11:02:58;100519.41;;;18.23;78.19
74627;BME280;63132;52.268;5.192;2022-09-09T11:05:28;100519.56;;;18.19;80.22
74627;BME280;63132;52.268;5.192;2022-09-09T11:08:05;100517.00;;;18.71;77.00
74627;BME280;63132;52.268;5.192;2022-09-09T11:16:22;100517.28;;;18.91;75.41
74627;BME280;63132;52.268;5.192;2022-09-09T11:18:49;100516.34;;;19.03;71.97
74627;BME280;63132;52.268;5.192;2022-09-09T11:21:24;100524.00;;;19.03;72.88
74627;BME280;63132;52.268;5.192;2022-09-09T11:23:55;100511.63;;;19.19;72.44
74627;BME280;63132;52.268;5.192;2022-09-09T11:26:37;100517.09;;;19.13;71.62
74627;BME280;63132;52.268;5.192;2022-09-09T11:37:20;100510.72;;;19.03;71.73
74627;BME280;63132;52.268;5.192;2022-09-09T11:42:42;100499.06;;;18.96;71.16
74627;BME280;63132;52.268;5.192;2022-09-09T11:45:28;100506.84;;;18.92;73.06
74627;BME280;63132;52.268;5.192;2022-09-09T11:47:59;100496.88;;;19.51;71.06
74627;BME280;63132;52.268;5.192;2022-09-09T11:52:51;100503.13;;;19.88;68.88
74627;BME280;63132;52.268;5.192;2022-09-09T11:55:26;100489.97;;;20.28;67.19
74627;BME280;63132;52.268;5.192;2022-09-09T11:58:02;100497.66;;;20.18;68.73
74627;BME280;63132;52.268;5.192;2022-09-09T12:03:35;100503.75;;;18.80;73.03
74627;BME280;63132;52.268;5.192;2022-09-09T12:06:20;100501.84;;;18.50;75.32
74627;BME280;63132;52.268;5.192;2022-09-09T12:09:06;100503.03;;;18.12;76.22
74627;BME280;63132;52.268;5.192;2022-09-09T12:11:33;100523.06;;;17.61;79.32
74627;BME280;63132;52.268;5.192;2022-09-09T12:13:59;100514.53;;;17.34;81.34
74627;BME280;63132;52.268;5.192;2022-09-09T12:16:34;100508.84;;;17.15;81.70
74627;BME280;63132;52.268;5.192;2022-09-09T12:21:37;100505.47;;;17.92;81.70
74627;BME280;63132;52.268;5.192;2022-09-09T12:24:37;100512.25;;;18.31;79.89
74627;BME280;63132;52.268;5.192;2022-09-09T12:27:11;100500.56;;;18.23;80.60
74627;BME280;63132;52.268;5.192;2022-09-09T12:32:11;100512.72;;;18.20;78.83
74627;BME280;63132;52.268;5.192;2022-09-09T12:37:52;100509.38;;;18.71;77.35
74627;BME280;63132;52.268;5.192;2022-09-09T12:40:30;100502.19;;;18.70;78.64
74627;BME280;63132;52.268;5.192;2022-09-09T12:42:57;100499.66;;;18.45;78.48
74627;BME280;63132;52.268;5.192;2022-09-09T12:45:27;100499.84;;;18.78;78.10
74627;BME280;63132;52.268;5.192;2022-09-09T12:48:11;100496.88;;;18.81;77.11
74627;BME280;63132;52.268;5.192;2022-09-09T12:50:51;100496.25;;;18.41;77.72
74627;BME280;63132;52.268;5.192;2022-09-09T12:53:35;100494.63;;;18.03;78.44
74627;BME280;63132;52.268;5.192;2022-09-09T12:56:05;100500.44;;;18.27;77.42
74627;BME280;63132;52.268;5.192;2022-09-09T12:58:32;100496.38;;;18.28;76.00
74627;BME280;63132;52.268;5.192;2022-09-09T13:00:59;100499.13;;;18.01;77.13
74627;BME280;63132;52.268;5.192;2022-09-09T13:03:25;100496.88;;;17.77;78.36
74627;BME280;63132;52.268;5.192;2022-09-09T13:05:51;100502.28;;;18.30;76.06
74627;BME280;63132;52.268;5.192;2022-09-09T13:08:18;100492.41;;;17.89;78.69
74627;BME280;63132;52.268;5.192;2022-09-09T13:13:15;100493.94;;;17.81;77.89
74627;BME280;63132;52.268;5.192;2022-09-09T13:15:48;100480.31;;;18.19;76.80
74627;BME280;63132;52.268;5.192;2022-09-09T13:18:15;100499.75;;;18.05;76.92
74627;BME280;63132;52.268;5.192;2022-09-09T13:20:47;100500.81;;;17.89;77.98
74627;BME280;63132;52.268;5.192;2022-09-09T13:23:14;100490.31;;;17.71;79.21
74627;BME280;63132;52.268;5.192;2022-09-09T13:25:40;100493.03;;;17.93;77.57
74627;BME280;63132;52.268;5.192;2022-09-09T13:28:21;100489.13;;;17.90;76.56
74627;BME280;63132;52.268;5.192;2022-09-09T13:30:57;100497.38;;;17.85;78.55
74627;BME280;63132;52.268;5.192;2022-09-09T13:33:38;100492.91;;;17.96;77.47
74627;BME280;63132;52.268;5.192;2022-09-09T13:36:08;100487.78;;;18.13;77.90
74627;BME280;63132;52.268;5.192;2022-09-09T13:38:53;100491.91;;;18.67;75.94
74627;BME280;63132;52.268;5.192;2022-09-09T13:41:21;100487.53;;;18.66;75.56
74627;BME280;63132;52.268;5.192;2022-09-09T13:43:49;100491.25;;;18.63;74.42
74627;BME280;63132;52.268;5.192;2022-09-09T13:46:38;100487.03;;;19.04;72.51
74627;BME280;63132;52.268;5.192;2022-09-09T13:51:38;100489.84;;;18.40;75.54
74627;BME280;63132;52.268;5.192;2022-09-09T13:54:05;100497.78;;;18.42;76.67
74627;BME280;63132;52.268;5.192;2022-09-09T13:56:34;100495.16;;;18.57;75.39
74627;BME280;63132;52.268;5.192;2022-09-09T13:59:00;100491.56;;;18.38;75.14
74627;BME280;63132;52.268;5.192;2022-09-09T14:01:26;100487.19;;;18.37;75.06
74627;BME280;63132;52.268;5.192;2022-09-09T14:03:53;100487.19;;;18.27;76.30
74627;BME280;63132;52.268;5.192;2022-09-09T14:06:18;100489.09;;;18.67;74.27
74627;BME280;63132;52.268;5.192;2022-09-09T14:08:44;100495.19;;;18.66;74.06
74627;BME280;63132;52.268;5.192;2022-09-09T14:11:12;100496.84;;;18.45;76.52
74627;BME280;63132;52.268;5.192;2022-09-09T14:13:38;100487.84;;;18.41;74.66
74627;BME280;63132;52.268;5.192;2022-09-09T14:16:03;100486.25;;;18.21;75.56
74627;BME280;63132;52.268;5.192;2022-09-09T14:18:29;100484.69;;;18.11;76.14
74627;BME280;63132;52.268;5.192;2022-09-09T14:20:54;100484.53;;;18.24;75.00
74627;BME280;63132;52.268;5.192;2022-09-09T14:23:19;100490.41;;;18.08;75.64
74627;BME280;63132;52.268;5.192;2022-09-09T14:25:47;100500.38;;;17.99;75.38
74627;BME280;63132;52.268;5.192;2022-09-09T14:28:13;100490.53;;;17.95;75.50
74627;BME280;63132;52.268;5.192;2022-09-09T14:30:40;100487.03;;;18.31;75.25
74627;BME280;63132;52.268;5.192;2022-09-09T14:33:07;100490.00;;;18.27;74.41
74627;BME280;63132;52.268;5.192;2022-09-09T14:35:34;100490.63;;;18.50;73.47
74627;BME280;63132;52.268;5.192;2022-09-09T14:37:59;100493.13;;;18.48;73.62
74627;BME280;63132;52.268;5.192;2022-09-09T14:40:26;100492.81;;;18.64;75.09
74627;BME280;63132;52.268;5.192;2022-09-09T14:42:52;100491.41;;;18.41;76.54
74627;BME280;63132;52.268;5.192;2022-09-09T14:45:18;100481.44;;;18.95;72.58
74627;BME280;63132;52.268;5.192;2022-09-09T14:47:43;100485.94;;;19.02;73.64
74627;BME280;63132;52.268;5.192;2022-09-09T14:50:09;100485.84;;;19.39;72.44
74627;BME280;63132;52.268;5.192;2022-09-09T14:52:34;100483.28;;;19.59;71.43
74627;BME280;63132;52.268;5.192;2022-09-09T14:54:59;100478.94;;;19.58;73.06
74627;BME280;63132;52.268;5.192;2022-09-09T14:57:25;100481.59;;;19.61;71.82
74627;BME280;63132;52.268;5.192;2022-09-09T14:59:50;100480.06;;;19.42;71.92
74627;BME280;63132;52.268;5.192;2022-09-09T15:02:16;100476.13;;;19.49;71.64
74627;BME280;63132;52.268;5.192;2022-09-09T15:04:41;100489.81;;;19.65;72.13